Flight Track Log - Related Links

Times and Time Zones

All times are in EDT time to prevent confusion due to time zone crossing. See the EJA922 flight status page for this flight to view local times or setup timezone preferences in your user account.

Time Position Orientation Groundspeed Altitude Reporting Facility
EDT Latitude Longitude Course Direction KTS MPH feet Rate Location/Type
Sun 07:25:12 AM 29.9594 -95.3414 217° Southwest 192 221 900  Level Houston Center
Sun 07:26:00 AM 29.9206 -95.3750 217° Southwest 238 274 3,600 2,752 Climbing Houston Center
Sun 07:27:01 AM 29.9133 -95.4578 264° West 282 325 5,900 2,713 Climbing Houston Center
Sun 07:27:55 AM 29.9253 -95.5433 279° West 291 335 8,800 3,045 Climbing Houston Center
Sun 07:28:08 AM 29.9308 -95.5572 295° West 292 336 9,300 1,808 Climbing Houston Center
Sun 07:29:08 AM 29.9578 -95.6500 289° West 305 351 11,000 1,636 Climbing Houston Center
Sun 07:30:09 AM 29.9897 -95.7619 288° West 359 413 12,600 1,770 Climbing Houston Center
Sun 07:31:10 AM 30.0214 -95.8783 287° West 376 433 14,600 1,934 Climbing Houston Center
Sun 07:32:10 AM 30.0539 -96.0003 287° West 393 452 16,500 1,785 Climbing Houston Center
Sun 07:33:11 AM 30.0800 -96.1111 285° West 394 453 18,200 1,967 Climbing Houston Center
Sun 07:34:12 AM 30.1119 -96.2597 284° West 397 457 20,500 1,785 Climbing Houston Center
Sun 07:35:12 AM 30.1333 -96.3633 283° West 402 463 21,800 1,537 Climbing Houston Center
Sun 07:36:13 AM 30.1661 -96.5211 284° West 419 482 23,600 1,623 Climbing Houston Center
Sun 07:37:14 AM 30.1950 -96.6553 284° West 427 491 25,100 1,488 Climbing Houston Center
Sun 07:38:14 AM 30.2233 -96.7939 283° West 439 505 26,600 1,488 Climbing Houston Center
Sun 07:39:15 AM 30.2522 -96.9342 283° West 442 509 28,100 1,475 Climbing Houston Center
Sun 07:40:16 AM 30.2811 -97.0764 283° West 449 517 29,600 1,475 Climbing Houston Center
Sun 07:41:17 AM 30.3106 -97.2164 284° West 448 516 31,100 1,388 Climbing Houston Center
Sun 07:42:17 AM 30.3386 -97.3622 283° West 458 527 32,400 1,140 Climbing Houston Center
Sun 07:43:18 AM 30.3697 -97.5100 284° West 466 536 33,400 934 Climbing Houston Center
Sun 07:44:19 AM 30.3994 -97.6614 283° West 477 549 34,300 934 Climbing Houston Center
Sun 07:45:20 AM 30.4325 -97.8158 284° West 490 564 35,300 992 Climbing Houston Center
Sun 07:46:20 AM 30.4739 -97.9694 287° West 495 570 36,300 1,190 Climbing Houston Center
Sun 07:47:21 AM 30.5156 -98.1253 287° West 502 578 37,700 1,426 Climbing Houston Center
Sun 07:48:22 AM 30.5558 -98.2783 287° West 499 574 39,200 1,488 Climbing Houston Center
Sun 07:49:22 AM 30.5953 -98.4289 287° West 491 565 40,700 1,388 Climbing Houston Center
Sun 07:50:23 AM 30.6347 -98.5778 287° West 485 558 42,000 1,131 Climbing Houston Center
Sun 07:51:24 AM 30.6739 -98.7269 287° West 483 556 43,000 492 Climbing Houston Center
Sun 07:52:25 AM 30.7119 -98.8783 286° West 488 562 43,000  Level Houston Center
Sun 07:53:26 AM 30.7531 -99.0358 287° West 507 583 43,000  Level Houston Center
Sun 07:54:26 AM 30.8008 -99.2211 287° West 516 594 43,000  Level Houston Center
Sun 07:55:27 AM 30.8411 -99.3797 287° West 516 594 43,000  Level Houston Center
Sun 07:56:28 AM 30.8811 -99.5369 287° West 515 593 43,000  Level Houston Center
Sun 07:57:29 AM 30.9208 -99.6947 286° West 514 592 43,000  Level Houston Center
Sun 07:58:30 AM 30.9594 -99.8503 286° West 508 585 43,000  Level Houston Center
Sun 07:59:30 AM 30.9989 -100.0075 286° West 507 583 43,000  Level Houston Center
Sun 08:00:31 AM 31.0378 -100.1658 286° West 508 585 43,000  Level Houston Center
Sun 08:01:32 AM 31.0761 -100.3233 286° West 508 585 43,000  Level Houston Center
Sun 08:02:33 AM 31.1144 -100.4808 286° West 508 585 43,000  Level Houston Center
Sun 08:03:34 AM 31.1531 -100.6394 286° West 508 585 43,000  Level Houston Center
Sun 08:04:35 AM 31.1925 -100.7983 286° West 509 586 43,000  Level Houston Center
Sun 08:05:35 AM 31.2375 -100.9886 286° West 509 586 43,000  Level Houston Center
Sun 08:06:36 AM 31.2706 -101.1311 285° West 509 586 43,000  Level Houston Center
Sun 08:07:37 AM 31.3092 -101.2903 286° West 509 586 43,000  Level Houston Center
Sun 08:08:38 AM 31.3467 -101.4475 286° West 509 586 43,000  Level Houston Center
Sun 08:09:50 AM 31.3928 -101.6381 286° West 509 586 43,000  Level Fort Worth Center
Sun 08:10:51 AM 31.4297 -101.7964 285° West 509 586 43,000  Level Fort Worth Center
Sun 08:11:52 AM 31.4739 -101.9869 285° West 510 587 43,000  Level Fort Worth Center
Sun 08:12:53 AM 31.5097 -102.1458 285° West 513 590 43,000  Level Fort Worth Center
Sun 08:13:54 AM 31.5442 -102.3042 284° West 514 592 43,000  Level Fort Worth Center
Sun 08:14:55 AM 31.5808 -102.4631 285° West 514 592 43,000  Level Fort Worth Center
Sun 08:15:56 AM 31.6150 -102.6231 284° West 513 590 43,000  Level Fort Worth Center
Sun 08:16:57 AM 31.6511 -102.7825 285° West 513 590 43,000  Level Fort Worth Center
Sun 08:17:58 AM 31.6850 -102.9433 284° West 511 588 43,000  Level Fort Worth Center
Sun 08:18:59 AM 31.7219 -103.1025 285° West 510 587 43,000 -49 Level Fort Worth Center
Sun 08:20:00 AM 31.7639 -103.2958 284° West 510 587 42,900  Descending Fort Worth Center
Sun 08:21:01 AM 31.7983 -103.4564 284° West 508 585 43,000 49 Climbing Fort Worth Center
Sun 08:22:03 AM 31.8322 -103.6164 284° West 508 585 43,000  Level Fort Worth Center
Sun 08:23:04 AM 31.8667 -103.7767 284° West 508 585 43,000  Level Fort Worth Center
Sun 08:24:05 AM 31.9006 -103.9378 284° West 508 585 43,000  Level Fort Worth Center
Sun 08:25:06 AM 31.9347 -104.0986 284° West 508 585 43,000  Level Fort Worth Center
Sun 08:26:07 AM 31.9694 -104.2594 284° West 508 585 43,000  Level Fort Worth Center
Sun 08:27:08 AM 32.0025 -104.4228 283° West 509 586 43,000  Level Fort Worth Center
Sun 08:28:09 AM 32.0381 -104.5942 284° West 509 586 43,000  Level Fort Worth Center
Sun 08:29:10 AM 32.0706 -104.7575 283° West 510 587 43,000  Level Fort Worth Center
Sun 08:30:12 AM 32.1069 -104.9222 285° West 513 590 43,000  Level Fort Worth Center
Sun 08:31:13 AM 32.1372 -105.0867 282° West 513 590 43,000  Level Fort Worth Center
Sun 08:32:14 AM 32.1711 -105.2511 284° West 514 592 43,000  Level Fort Worth Center
Sun 08:33:19 AM 32.2125 -105.4375 285° West 515 593 43,000  Level Albuquerque Center
Sun 08:34:19 AM 32.2447 -105.6008 283° West 514 592 43,000  Level Albuquerque Center
Sun 08:35:20 AM 32.2772 -105.7614 284° West 511 588 43,000 -50 Level Albuquerque Center
Sun 08:36:20 AM 32.3094 -105.9267 283° West 513 590 42,900  Descending Albuquerque Center
Sun 08:37:21 AM 32.3414 -106.0908 283° West 513 590 43,000 50 Climbing Albuquerque Center
Sun 08:38:21 AM 32.3733 -106.2536 283° West 515 593 43,000  Level Albuquerque Center
Sun 08:39:22 AM 32.4053 -106.4181 283° West 517 595 43,000  Level Albuquerque Center
Sun 08:40:22 AM 32.4428 -106.6153 283° West 515 593 43,000  Level Albuquerque Center
Sun 08:41:23 AM 32.4742 -106.7781 283° West 514 592 43,000 -50 Level Albuquerque Center
Sun 08:42:23 AM 32.5031 -106.9453 282° West 510 587 42,900  Descending Albuquerque Center
Sun 08:43:24 AM 32.5344 -107.1083 283° West 510 587 43,000 50 Climbing Albuquerque Center
Sun 08:44:24 AM 32.5636 -107.2736 282° West 510 587 43,000  Level Albuquerque Center
Sun 08:45:25 AM 32.5936 -107.4375 282° West 510 587 43,000  Level Albuquerque Center
Sun 08:46:25 AM 32.6192 -107.5828 282° West 510 587 43,000 -50 Level Albuquerque Center
Sun 08:47:26 AM 32.6483 -107.7450 282° West 509 586 42,900  Descending Albuquerque Center
Sun 08:48:26 AM 32.6817 -107.9278 282° West 509 586 43,000 50 Climbing Albuquerque Center
Sun 08:49:27 AM 32.7108 -108.0917 282° West 509 586 43,000  Level Albuquerque Center
Sun 08:50:27 AM 32.7400 -108.2547 282° West 509 586 43,000  Level Albuquerque Center
Sun 08:51:28 AM 32.7689 -108.4203 282° West 509 586 43,000  Level Albuquerque Center
Sun 08:52:28 AM 32.7975 -108.5853 282° West 509 586 43,000  Level Albuquerque Center
Sun 08:53:29 AM 32.8258 -108.7522 281° West 510 587 43,000 -50 Level Albuquerque Center
Sun 08:54:29 AM 32.8575 -108.9311 282° West 519 597 42,900  Descending Albuquerque Center
Sun 08:55:30 AM 32.8839 -109.0983 281° West 518 596 43,000 50 Climbing Albuquerque Center
Sun 08:56:30 AM 32.9131 -109.2686 282° West 519 597 43,000  Level Albuquerque Center
Sun 08:57:31 AM 32.9422 -109.4342 282° West 518 596 43,000  Level Albuquerque Center
Sun 08:58:31 AM 32.9692 -109.6003 281° West 516 594 43,000  Level Albuquerque Center
Sun 08:59:32 AM 32.9972 -109.7664 281° West 514 592 43,000  Level Albuquerque Center
Sun 09:00:33 AM 33.0247 -109.9325 281° West 513 590 43,000  Level Albuquerque Center
Sun 09:01:33 AM 33.0511 -110.0983 281° West 513 590 43,000  Level Albuquerque Center
Sun 09:02:34 AM 33.0783 -110.2653 281° West 513 590 43,000  Level Albuquerque Center
Sun 09:03:34 AM 33.1039 -110.4331 280° West 513 590 43,000  Level Albuquerque Center
Sun 09:04:35 AM 33.1300 -110.6000 281° West 513 590 43,000  Level Albuquerque Center
Sun 09:05:36 AM 33.1572 -110.7744 281° West 513 590 43,000  Level Albuquerque Center
Sun 09:06:36 AM 33.1831 -110.9408 281° West 513 590 43,000  Level Albuquerque Center
Sun 09:07:37 AM 33.2081 -111.1050 280° West 504 580 43,000  Level Albuquerque Center
Sun 09:08:38 AM 33.2328 -111.2697 280° West 503 579 43,000  Level Albuquerque Center
Sun 09:09:38 AM 33.2561 -111.4367 280° West 505 581 43,000  Level Albuquerque Center
Sun 09:10:39 AM 33.2811 -111.6008 280° West 503 579 43,000  Level Albuquerque Center
Sun 09:11:40 AM 33.3056 -111.7667 280° West 503 579 43,000  Level Albuquerque Center
Sun 09:12:40 AM 33.3286 -111.9308 280° West 503 579 43,000  Level Albuquerque Center
Sun 09:13:41 AM 33.3519 -112.0942 280° West 500 575 43,000  Level Albuquerque Center
Sun 09:14:42 AM 33.3747 -112.2575 280° West 500 575 43,000  Level Albuquerque Center
Sun 09:15:42 AM 33.3975 -112.4236 279° West 501 577 43,000  Level Albuquerque Center
Sun 09:16:43 AM 33.4206 -112.5875 280° West 500 575 43,000  Level Albuquerque Center
Sun 09:17:44 AM 33.4439 -112.7544 280° West 500 575 43,000  Level Albuquerque Center
Sun 09:18:44 AM 33.4661 -112.9194 279° West 500 575 43,000  Level Albuquerque Center
Sun 09:19:45 AM 33.4878 -113.0844 279° West 500 575 43,000  Level Albuquerque Center
Sun 09:20:46 AM 33.5086 -113.2489 279° West 501 577 43,000  Level Albuquerque Center
Sun 09:21:47 AM 33.5300 -113.4139 279° West 501 577 43,000  Level Albuquerque Center
Sun 09:22:47 AM 33.5550 -113.6119 279° West 501 577 43,000  Level Albuquerque Center
Sun 09:23:48 AM 33.5753 -113.7769 278° West 501 577 43,000  Level Albuquerque Center
Sun 09:24:49 AM 33.5944 -113.9417 278° West 501 577 43,000  Level Albuquerque Center
Sun 09:25:50 AM 33.6139 -114.1100 278° West 501 577 43,000  Level Albuquerque Center
Sun 09:26:51 AM 33.6339 -114.2717 278° West 501 577 43,000  Level Albuquerque Center
Sun 09:27:52 AM 33.6536 -114.4367 278° West 501 577 43,000  Level Albuquerque Center
Sun 09:29:22 AM 33.6847 -114.6944 278° West 499 574 43,000  Level Los Angeles Center
Sun 09:30:23 AM 33.7039 -114.8586 278° West 499 574 43,000  Level Los Angeles Center
Sun 09:31:24 AM 33.7233 -115.0233 278° West 499 574 43,000  Level Los Angeles Center
Sun 09:32:25 AM 33.7406 -115.1881 277° West 499 574 43,000 -1,131 Level Los Angeles Center
Sun 09:33:26 AM 33.7592 -115.3525 278° West 499 574 40,700 -2,479 Descending Los Angeles Center
Sun 09:34:26 AM 33.7758 -115.5189 277° West 504 580 38,000 -2,656 Descending Los Angeles Center
Sun 09:35:28 AM 33.7947 -115.6875 278° West 508 585 35,300 -2,705 Descending Los Angeles Center
Sun 09:36:28 AM 33.8122 -115.8628 277° West 526 605 32,500 -2,777 Descending Los Angeles Center
Sun 09:37:29 AM 33.8303 -116.0392 277° West 531 611 29,700 -3,000 Descending Los Angeles Center
Sun 09:38:30 AM 33.8511 -116.2467 277° West 526 605 26,400 -2,656 Descending Los Angeles Center
Sun 09:39:31 AM 33.8681 -116.4136 277° West 510 587 24,300 -3,443 Descending Los Angeles Center
Sun 09:40:32 AM 33.8778 -116.5836 274° West 512 589 19,400 -4,279 Descending Los Angeles Center
Sun 09:41:33 AM 33.8833 -116.7364 273° West 466 536 15,600 -2,705 Descending Los Angeles Center
Sun 09:42:34 AM 33.8981 -116.8858 277° West 457 526 13,900 -1,220 Descending Los Angeles Center
Sun 09:43:36 AM 33.9283 -117.0308 284° West 449 517 13,100 -878 Descending Los Angeles Center
Sun 09:44:37 AM 33.9589 -117.1867 283° West 445 512 12,100 -1,180 Descending Los Angeles Center
Sun 09:45:38 AM 33.9867 -117.3256 284° West 434 499 10,700 -1,475 Descending Los Angeles Center
Sun 09:46:39 AM 34.0086 -117.4294 284° West 325 374 9,100 -1,328 Descending Los Angeles Center
Sun 09:47:40 AM 34.0278 -117.5272 283° West 306 352 8,000 -520 Descending Los Angeles Center
Sun 09:48:46 AM 34.0500 -117.6333 284° West 295 339 8,000  Level Southern California TRACON
Sun 09:49:46 AM 34.0667 -117.7333 281° West 297 342 8,000  Level Southern California TRACON
Sun 09:50:46 AM 34.0833 -117.8333 281° West 306 352 8,000  Level Southern California TRACON
Sun 09:51:46 AM 34.1167 -117.9333 292° West 307 353 8,000  Level Southern California TRACON
Sun 09:52:46 AM 34.1314 -118.0378 280° West 305 351 8,000 -248 Level Los Angeles Center
Sun 09:53:47 AM 34.1497 -118.1397 282° West 310 357 7,500 -976 Descending Los Angeles Center
Sun 09:54:49 AM 34.1572 -118.2378 275° West 305 351 6,000 -1,400 Descending Los Angeles Center
Sun 09:55:47 AM 34.1667 -118.3167 278° West 250 288 4,700 -1,729 Descending Southern California TRACON
Sun 09:56:47 AM 34.1667 -118.3833 270° West 176 203 2,600 -1,600 Descending Southern California TRACON
Sun 09:57:47 AM 34.2000 -118.4000 338° Northwest 137 158 1,500 -756 Descending Southern California TRACON
Sun 09:58:54 AM 34.2011 -118.3619 88° East 153 176 1,000 -448 Descending Los Angeles Center
Sun 10:00:00 AM 34.2000 -118.3500 90° East  Level FlightAware Approximate
Sun 10:07:00 AM 34.2007 -118.3587 90° East  Level Estimated

Login

Don't have an account? Register now (free) for customized features, flight alerts, and more!